KESC/ESC METAR and TAF weather

Enter ICAO airport designator
Station Type Date Time Source
KESC METAR 2022/06/25 22:56 UTC NOAA

KESC 252256Z AUTO 20009KT 10SM OVC080 21/17 A2992 RMK AO2 SLP134 T02110167


Station Type Date Time Source
KESC Decoded METAR 2022/06/25 22:56 UTC NOAA

Escanaba, MI, United States (KESC) 45-45N 087-02W 187M
Jun 25, 2022 - 06:56 PM EDT / 2022.06.25 2256 UTC
Wind: from the SSW (200 degrees) at 10 MPH (9 KT):0
Visibility: 10 mile(s):0
Sky conditions: overcast
Temperature: 70.0 F (21.1 C)
Dew Point: 62.1 F (16.7 C)
Relative Humidity: 75%
Pressure (altimeter): 29.92 in. Hg (1013 hPa)
ob: KESC 252256Z AUTO 20009KT 10SM OVC080 21/17 A2992 RMK AO2 SLP134 T02110167
cycle: 23

Station Type Date Time Source
KESC TAF UTC NOAA

Error!

Example: see airport list